createdAt,value
2022-09-12T00:00:07.891Z,98940.02
2022-09-12T00:01:17.217Z,98937.52
2022-09-12T00:02:21.301Z,98924.69
2022-09-12T00:03:25.652Z,98929.91
2022-09-12T00:04:29.402Z,98929.69
2022-09-12T00:05:32.182Z,98927.63
2022-09-12T00:06:37.922Z,98928.97
2022-09-12T00:07:40.817Z,98923.75
2022-09-12T00:08:42.966Z,98927.84
2022-09-12T00:09:44.979Z,98930.86
2022-09-12T00:10:47.333Z,98932.84
2022-09-12T00:11:49.714Z,98922.62
2022-09-12T00:12:52.050Z,98923.84
2022-09-12T00:13:59.867Z,98917.80
2022-09-12T00:15:02.043Z,98925.73
2022-09-12T00:16:05.051Z,98920.11
2022-09-12T00:17:07.169Z,98922.41
2022-09-12T00:18:15.673Z,98912.60
2022-09-12T00:19:18.084Z,98915.72
2022-09-12T00:20:20.742Z,98914.47
2022-09-12T00:21:24.415Z,98911.33
2022-09-12T00:22:26.931Z,98915.93
2022-09-12T00:23:28.919Z,98913.02
2022-09-12T00:24:30.830Z,98921.36
2022-09-12T00:25:32.969Z,98912.39
2022-09-12T00:26:34.995Z,98911.76
2022-09-12T00:27:36.912Z,98909.47
2022-09-12T00:28:40.843Z,98914.27
2022-09-12T00:29:43.240Z,98908.61
2022-09-12T00:30:48.117Z,98908.61
2022-09-12T00:31:50.182Z,98902.96
2022-09-12T00:32:52.195Z,98901.28
2022-09-12T00:33:57.642Z,98901.41
2022-09-12T00:34:59.599Z,98898.80
2022-09-12T00:37:15.233Z,98889.28
2022-09-12T00:38:17.090Z,98892.20
2022-09-12T00:39:18.972Z,98892.20
2022-09-12T00:40:22.236Z,98891.07
2022-09-12T00:41:27.792Z,98888.97
2022-09-12T00:42:29.743Z,98887.92
2022-09-12T00:43:40.867Z,98887.72
2022-09-12T00:44:46.401Z,98883.44
2022-09-12T00:45:48.478Z,98892.71
2022-09-12T00:47:03.737Z,98884.80
2022-09-12T00:48:10.336Z,98879.47
2022-09-12T00:49:24.984Z,98884.80
2022-09-12T00:50:28.043Z,98883.86
2022-09-12T00:51:33.485Z,98873.73
2022-09-12T00:52:41.860Z,98872.05
2022-09-12T00:53:45.938Z,98881.88
2022-09-12T00:54:51.521Z,98874.98
2022-09-12T00:55:55.165Z,98874.05
2022-09-12T00:57:01.321Z,98874.36
2022-09-12T00:58:12.875Z,98873.30
2022-09-12T00:59:21.328Z,98864.85
2022-09-12T01:00:26.399Z,98879.38
2022-09-12T01:01:32.415Z,98879.78
2022-09-12T01:02:32.857Z,98883.02
2022-09-12T01:03:34.883Z,98872.80
2022-09-12T01:04:40.216Z,98871.02
2022-09-12T01:05:45.674Z,98872.25
2022-09-12T01:06:50.409Z,98870.38
2022-09-12T01:07:53.998Z,98871.82
2022-09-12T01:08:57.986Z,98865.16
2022-09-12T01:10:00.254Z,98872.48
2022-09-12T01:11:03.769Z,98873.62
2022-09-12T01:12:06.357Z,98875.60
2022-09-12T01:13:10.914Z,98869.52
2022-09-12T01:14:14.422Z,98876.30
2022-09-12T01:15:16.570Z,98873.86
2022-09-12T01:16:18.830Z,98873.45
2022-09-12T01:17:23.848Z,98869.91
2022-09-12T01:18:32.361Z,98876.16
2022-09-12T01:19:40.944Z,98878.48
2022-09-12T01:20:52.580Z,98881.39
2022-09-12T01:22:29.367Z,98875.10
2022-09-12T01:24:08.584Z,98872.81
2022-09-12T01:25:41.748Z,98879.09
2022-09-12T01:27:07.377Z,98875.77
2022-09-12T01:28:37.357Z,98882.64
2022-09-12T01:29:46.225Z,98876.60
2022-09-12T01:31:10.909Z,98874.30
2022-09-12T01:32:22.480Z,98873.06
2022-09-12T01:33:37.642Z,98883.55
2022-09-12T01:34:49.230Z,98879.66
2022-09-12T01:36:06.546Z,98870.38
2022-09-12T01:37:30.548Z,98883.75
2022-09-12T01:38:36.128Z,98874.36
2022-09-12T01:39:57.213Z,98877.89
2022-09-12T01:41:15.179Z,98873.92
2022-09-12T01:42:34.829Z,98871.63
2022-09-12T01:43:43.393Z,98877.05
2022-09-12T01:45:10.287Z,98874.73
2022-09-12T01:46:25.181Z,98870.55
2022-09-12T01:47:30.784Z,98868.76
2022-09-12T01:48:36.561Z,98860.53
2022-09-12T01:49:51.567Z,98869.08
2022-09-12T01:51:03.192Z,98866.58
2022-09-12T01:52:09.242Z,98859.30
2022-09-12T01:53:26.638Z,98865.16
2022-09-12T01:54:51.831Z,98864.61
2022-09-12T01:56:09.109Z,98859.80
2022-09-12T01:57:17.959Z,98865.53
2022-09-12T01:58:26.606Z,98865.09
2022-09-12T01:59:34.985Z,98856.95
2022-09-12T02:00:47.130Z,98863.15
2022-09-12T02:01:59.087Z,98856.31
2022-09-12T02:03:10.556Z,98861.54
2022-09-12T02:04:19.758Z,98855.58
2022-09-12T02:05:40.686Z,98860.10
2022-09-12T02:06:49.155Z,98847.74
2022-09-12T02:08:03.974Z,98858.63
2022-09-12T02:09:12.617Z,98851.30
2022-09-12T02:10:22.771Z,98852.97
2022-09-12T02:11:25.616Z,98852.27
2022-09-12T02:12:31.545Z,98850.70
2022-09-12T02:13:40.471Z,98845.25
2022-09-12T02:14:53.787Z,98843.14
2022-09-12T02:15:59.381Z,98841.70
2022-09-12T02:17:08.189Z,98846.92
2022-09-12T02:18:14.642Z,98843.78
2022-09-12T02:19:22.761Z,98846.92
2022-09-12T02:20:47.325Z,98841.91
2022-09-12T02:21:37.918Z,98839.29
2022-09-12T02:22:42.561Z,98841.91
2022-09-12T02:23:48.212Z,98842.75
2022-09-12T02:24:53.820Z,98841.70
2022-09-12T02:25:59.231Z,98841.28
2022-09-12T02:27:14.111Z,98842.02
2022-09-12T02:28:19.685Z,98840.84
2022-09-12T02:29:22.588Z,98848.80
2022-09-12T02:30:27.226Z,98845.69
2022-09-12T02:31:47.193Z,98843.34
2022-09-12T02:33:01.283Z,98846.31
2022-09-12T02:34:19.511Z,98843.08
2022-09-12T02:35:40.669Z,98842.87
2022-09-12T02:36:52.355Z,98840.67
2022-09-12T02:38:04.283Z,98848.19
2022-09-12T02:39:06.438Z,98843.63
2022-09-12T02:40:10.314Z,98839.11
2022-09-12T02:41:16.607Z,98843.39
2022-09-12T02:42:18.654Z,98845.39
2022-09-12T02:43:20.863Z,98846.23
2022-09-12T02:44:24.576Z,98842.25
2022-09-12T02:45:26.600Z,98843.81
2022-09-12T02:46:38.368Z,98846.07
2022-09-12T02:47:50.542Z,98837.53
2022-09-12T02:48:53.416Z,98842.95
2022-09-12T02:49:57.460Z,98840.84
2022-09-12T02:51:00.855Z,98845.45
2022-09-12T02:52:03.404Z,98842.19
2022-09-12T02:53:07.317Z,98842.24
2022-09-12T02:54:10.257Z,98847.26
2022-09-12T02:55:14.601Z,98853.42
2022-09-12T02:56:23.466Z,98847.02
2022-09-12T02:57:26.161Z,98844.69
2022-09-12T02:58:30.725Z,98852.81
2022-09-12T02:59:33.344Z,98854.48
2022-09-12T03:00:39.151Z,98854.69
2022-09-12T03:02:12.285Z,98845.91
2022-09-12T03:05:02.754Z,98856.67
2022-09-12T03:06:20.085Z,98854.48
2022-09-12T03:07:43.940Z,98859.47
2022-09-12T03:08:55.505Z,98859.02
2022-09-12T03:10:07.199Z,98857.61
2022-09-12T03:11:15.883Z,98860.48
2022-09-12T03:12:33.736Z,98856.91
2022-09-12T03:13:54.482Z,98861.08
2022-09-12T03:15:09.884Z,98867.59
2022-09-12T03:16:25.315Z,98861.17
2022-09-12T03:17:33.774Z,98865.25
2022-09-12T03:18:54.645Z,98862.17
2022-09-12T03:20:02.969Z,98866.31
2022-09-12T03:21:34.679Z,98863.45
2022-09-12T03:22:55.703Z,98858.80
2022-09-12T03:24:16.890Z,98858.25
2022-09-12T03:25:22.615Z,98860.38
2022-09-12T03:26:36.659Z,98856.24
2022-09-12T03:27:42.238Z,98856.31
2022-09-12T03:28:46.934Z,98860.23
2022-09-12T03:29:51.495Z,98860.23
2022-09-12T03:30:54.384Z,98859.16
2022-09-12T03:31:58.199Z,98862.17
2022-09-12T03:33:00.074Z,98861.23
2022-09-12T03:34:02.523Z,98861.45
2022-09-12T03:35:05.532Z,98861.54
2022-09-12T03:36:23.428Z,98861.91
2022-09-12T03:37:25.305Z,98864.06
2022-09-12T03:38:26.907Z,98856.48
2022-09-12T03:39:29.170Z,98858.64
2022-09-12T03:40:31.828Z,98858.17
2022-09-12T03:41:33.567Z,98863.41
2022-09-12T03:42:35.605Z,98859.63
2022-09-12T03:43:37.638Z,98866.29
2022-09-12T03:44:39.850Z,98855.83
2022-09-12T03:45:42.043Z,98855.83
2022-09-12T03:46:44.299Z,98865.22
2022-09-12T03:47:46.258Z,98865.34
2022-09-12T03:48:48.173Z,98854.53
2022-09-12T03:49:50.160Z,98858.91
2022-09-12T03:50:52.144Z,98858.91
2022-09-12T03:51:54.484Z,98865.82
2022-09-12T03:52:58.727Z,98861.44
2022-09-12T03:54:00.716Z,98867.28
2022-09-12T03:55:03.007Z,98862.98
2022-09-12T03:56:07.367Z,98862.98
2022-09-12T03:57:09.843Z,98858.70
2022-09-12T03:58:12.237Z,98862.27
2022-09-12T03:59:14.589Z,98867.28
2022-09-12T04:00:19.882Z,98865.36
2022-09-12T04:01:21.893Z,98867.28
2022-09-12T04:02:23.977Z,98865.48
2022-09-12T04:03:25.885Z,98867.50
2022-09-12T04:04:28.317Z,98869.39
2022-09-12T04:05:30.114Z,98864.87
2022-09-12T04:06:32.829Z,98865.61
2022-09-12T04:07:34.630Z,98872.27
2022-09-12T04:08:37.560Z,98871.44
2022-09-12T04:09:39.568Z,98877.96
2022-09-12T04:10:41.753Z,98869.63
2022-09-12T04:11:43.603Z,98868.17
2022-09-12T04:12:45.608Z,98875.94
2022-09-12T04:13:48.154Z,98873.92
2022-09-12T04:14:50.298Z,98873.67
2022-09-12T04:15:57.126Z,98876.29
2022-09-12T04:17:00.236Z,98871.91
2022-09-12T04:18:05.703Z,98870.84
2022-09-12T04:19:06.597Z,98876.08
2022-09-12T04:20:10.305Z,98873.92
2022-09-12T04:21:15.988Z,98872.73
2022-09-12T04:22:18.366Z,98874.86
2022-09-12T04:23:20.743Z,98879.03
2022-09-12T04:24:22.772Z,98876.17
2022-09-12T04:25:24.698Z,98877.74
2022-09-12T04:26:27.312Z,98873.33
2022-09-12T04:27:29.233Z,98877.84
2022-09-12T04:28:32.146Z,98872.05
2022-09-12T04:29:34.617Z,98873.24
2022-09-12T04:30:37.138Z,98874.19
2022-09-12T04:31:39.052Z,98874.28
2022-09-12T04:32:40.936Z,98878.23
2022-09-12T04:33:44.485Z,98874.45
2022-09-12T04:34:46.702Z,98874.22
2022-09-12T04:35:49.202Z,98872.08
2022-09-12T04:36:52.123Z,98877.97
2022-09-12T04:37:53.938Z,98880.45
2022-09-12T04:39:02.137Z,98876.75
2022-09-12T04:40:04.902Z,98872.20
2022-09-12T04:41:13.106Z,98880.97
2022-09-12T04:42:15.455Z,98880.61
2022-09-12T04:43:17.968Z,98887.32
2022-09-12T04:44:20.122Z,98888.95
2022-09-12T04:45:22.760Z,98884.39
2022-09-12T04:46:29.046Z,98884.30
2022-09-12T04:47:31.186Z,98888.93
2022-09-12T04:48:33.177Z,98886.61
2022-09-12T04:49:35.194Z,98890.28
2022-09-12T04:50:38.492Z,98884.64
2022-09-12T04:51:43.344Z,98887.59
2022-09-12T04:52:51.089Z,98889.91
2022-09-12T04:53:55.261Z,98891.07
2022-09-12T04:54:57.192Z,98898.36
2022-09-12T04:56:03.471Z,98904.83
2022-09-12T04:57:06.284Z,98902.57
2022-09-12T04:58:08.160Z,98922.58
2022-09-12T04:59:12.113Z,98903.23
2022-09-12T05:00:15.716Z,98903.23
2022-09-12T05:01:20.405Z,98918.54
2022-09-12T05:02:22.379Z,98926.97
2022-09-12T05:03:24.798Z,98922.96
2022-09-12T05:04:26.596Z,98922.70
2022-09-12T05:05:28.937Z,98917.51
2022-09-12T05:07:45.390Z,98920.12
2022-09-12T05:08:47.503Z,98919.56
2022-09-12T05:09:49.911Z,98913.54
2022-09-12T05:10:51.996Z,98924.13
2022-09-12T05:12:09.185Z,98918.17
2022-09-12T05:12:57.625Z,98925.05
2022-09-12T05:13:59.652Z,98925.63
2022-09-12T05:15:02.216Z,98925.14
2022-09-12T05:16:06.255Z,98916.03
2022-09-12T05:17:08.221Z,98927.48
2022-09-12T05:18:10.513Z,98927.58
2022-09-12T05:19:12.342Z,98920.70
2022-09-12T05:20:15.159Z,98922.81
2022-09-12T05:21:19.957Z,98922.81
2022-09-12T05:22:22.184Z,98920.77
2022-09-12T05:23:24.312Z,98927.66
2022-09-12T05:24:26.815Z,98926.18
2022-09-12T05:25:28.608Z,98932.11
2022-09-12T05:26:31.454Z,98925.91
2022-09-12T05:27:33.834Z,98927.66
2022-09-12T05:28:37.507Z,98922.17
2022-09-12T05:29:40.095Z,98930.09
2022-09-12T05:30:42.238Z,98916.80
2022-09-12T05:31:44.519Z,98933.06
2022-09-12T05:32:46.220Z,98924.50
2022-09-12T05:33:50.033Z,98923.20
2022-09-12T05:34:52.036Z,98922.28
2022-09-12T05:35:53.974Z,98920.12
2022-09-12T05:36:56.530Z,98914.47
2022-09-12T05:37:59.009Z,98910.84
2022-09-12T05:39:01.259Z,98913.98
2022-09-12T05:40:04.107Z,98914.64
2022-09-12T05:42:29.394Z,98922.82
2022-09-12T05:43:34.112Z,98917.72
2022-09-12T05:44:36.096Z,98926.73
2022-09-12T05:45:38.646Z,98917.34
2022-09-12T05:46:43.634Z,98918.64
2022-09-12T05:47:46.503Z,98913.70
2022-09-12T05:48:55.042Z,98922.64
2022-09-12T05:49:53.800Z,98920.22
2022-09-12T05:52:15.294Z,98909.94
2022-09-12T05:53:17.050Z,98914.50
2022-09-12T05:54:19.805Z,98914.50
2022-09-12T05:55:21.905Z,98912.00
2022-09-12T05:56:27.146Z,98913.00
2022-09-12T05:57:29.296Z,98918.11
2022-09-12T05:58:31.765Z,98917.64
2022-09-12T05:59:34.255Z,98913.08
2022-09-12T06:00:36.654Z,98917.39
2022-09-12T06:01:39.606Z,98925.42
2022-09-12T06:02:41.751Z,98914.84
2022-09-12T06:03:46.736Z,98918.64
2022-09-12T06:04:48.742Z,98918.75
2022-09-12T06:05:50.803Z,98917.82
2022-09-12T06:06:53.015Z,98917.45
2022-09-12T06:07:55.245Z,98907.41
2022-09-12T06:09:00.524Z,98915.39
2022-09-12T06:10:03.941Z,98917.06
2022-09-12T06:11:07.401Z,98911.09
2022-09-12T06:12:09.686Z,98919.34
2022-09-12T06:13:12.526Z,98918.42
2022-09-12T06:14:18.961Z,98910.53
2022-09-12T06:15:21.213Z,98919.70
2022-09-12T06:16:28.042Z,98909.29
2022-09-12T06:17:30.468Z,98919.25
2022-09-12T06:18:32.498Z,98912.72
2022-09-12T06:19:34.295Z,98916.50
2022-09-12T06:20:36.231Z,98907.55
2022-09-12T06:21:38.133Z,98916.75
2022-09-12T06:22:40.332Z,98920.04
2022-09-12T06:23:43.624Z,98916.05
2022-09-12T06:24:45.666Z,98932.45
2022-09-12T06:25:48.656Z,98925.20
2022-09-12T06:26:50.796Z,98925.95
2022-09-12T06:27:52.985Z,98931.89
2022-09-12T06:28:56.933Z,98927.36
2022-09-12T06:29:58.886Z,98931.46
2022-09-12T06:31:04.219Z,98926.72
2022-09-12T06:32:07.526Z,98931.28
2022-09-12T06:33:10.394Z,98937.74
2022-09-12T06:34:14.323Z,98930.39
2022-09-12T06:35:16.428Z,98926.75
2022-09-12T06:36:29.777Z,98932.06
2022-09-12T06:37:32.376Z,98929.09
2022-09-12T06:38:34.361Z,98932.51
2022-09-12T06:39:36.402Z,98926.77
2022-09-12T06:40:42.911Z,98936.45
2022-09-12T06:41:45.612Z,98934.59
2022-09-12T06:42:47.478Z,98932.33
2022-09-12T06:43:52.471Z,98935.64
2022-09-12T06:44:54.495Z,98937.32
2022-09-12T06:45:56.903Z,98939.00
2022-09-12T06:46:59.661Z,98938.48
2022-09-12T06:48:02.725Z,98942.88
2022-09-12T06:49:04.654Z,98942.35
2022-09-12T06:50:08.064Z,98933.78
2022-09-12T06:51:12.509Z,98938.59
2022-09-12T06:52:14.489Z,98935.58
2022-09-12T06:53:16.339Z,98944.48
2022-09-12T06:54:18.951Z,98938.23
2022-09-12T06:55:23.551Z,98933.25
2022-09-12T06:56:27.200Z,98938.89
2022-09-12T06:57:29.056Z,98936.20
2022-09-12T06:58:31.530Z,98939.60
2022-09-12T06:59:33.449Z,98939.60
2022-09-12T07:00:35.926Z,98931.13
2022-09-12T07:01:38.735Z,98933.01
2022-09-12T07:02:40.812Z,98930.33
2022-09-12T07:03:55.665Z,98939.30
2022-09-12T07:04:57.685Z,98941.63
2022-09-12T07:06:05.486Z,98939.95
2022-09-12T07:07:07.295Z,98937.84
2022-09-12T07:08:09.798Z,98936.83
2022-09-12T07:09:14.209Z,98937.45
2022-09-12T07:10:22.090Z,98937.96
2022-09-12T07:11:23.934Z,98940.14
2022-09-12T07:12:27.885Z,98943.30
2022-09-12T07:13:29.720Z,98936.37
2022-09-12T07:14:33.903Z,98938.58
2022-09-12T07:15:35.724Z,98942.22
2022-09-12T07:16:39.120Z,98941.39
2022-09-12T07:17:41.118Z,98935.86
2022-09-12T07:18:43.364Z,98942.86
2022-09-12T07:19:45.242Z,98937.40
2022-09-12T07:20:47.665Z,98938.58
2022-09-12T07:21:49.914Z,98938.27
2022-09-12T07:22:52.977Z,98944.97
2022-09-12T07:23:55.594Z,98930.53
2022-09-12T07:24:57.870Z,98935.52
2022-09-12T07:26:00.634Z,98935.52
2022-09-12T07:27:04.908Z,98934.89
2022-09-12T07:28:06.834Z,98934.45
2022-09-12T07:30:19.997Z,98937.45
2022-09-12T07:31:24.607Z,98938.92
2022-09-12T07:32:26.947Z,98940.36
2022-09-12T07:33:29.326Z,98946.97
2022-09-12T07:34:31.662Z,98942.23
2022-09-12T07:35:33.893Z,98940.31
2022-09-12T07:36:37.117Z,98938.52
2022-09-12T07:37:39.626Z,98943.81
2022-09-12T07:38:42.532Z,98942.05
2022-09-12T07:39:44.972Z,98946.60
2022-09-12T07:40:48.660Z,98942.35
2022-09-12T07:41:50.982Z,98939.77
2022-09-12T07:42:53.334Z,98941.59
2022-09-12T07:43:57.697Z,98947.89
2022-09-12T07:45:00.357Z,98946.85
2022-09-12T07:46:18.557Z,98943.11
2022-09-12T07:47:22.535Z,98939.36
2022-09-12T07:48:29.160Z,98936.84
2022-09-12T07:49:35.891Z,98946.59
2022-09-12T07:50:45.134Z,98943.02
2022-09-12T07:51:46.305Z,98945.38
2022-09-12T07:52:51.171Z,98949.42
2022-09-12T07:53:54.141Z,98941.09
2022-09-12T07:54:56.076Z,98943.81
2022-09-12T07:55:58.095Z,98946.00
2022-09-12T07:57:01.041Z,98945.55
2022-09-12T07:58:04.034Z,98946.97
2022-09-12T07:59:07.509Z,98947.22
2022-09-12T08:00:10.613Z,98945.81
2022-09-12T08:01:17.891Z,98943.41
2022-09-12T08:02:20.965Z,98940.04
2022-09-12T08:03:22.982Z,98948.16
2022-09-12T08:04:24.849Z,98944.95
2022-09-12T08:05:26.817Z,98942.00
2022-09-12T08:07:55.866Z,98945.21
2022-09-12T08:08:58.949Z,98936.16
2022-09-12T08:10:01.005Z,98946.25
2022-09-12T08:11:06.549Z,98941.52
2022-09-12T08:12:08.884Z,98948.16
2022-09-12T08:13:11.017Z,98941.70
2022-09-12T08:14:13.078Z,98946.31
2022-09-12T08:15:15.049Z,98942.64
2022-09-12T08:16:20.087Z,98941.37
2022-09-12T08:17:22.122Z,98942.43
2022-09-12T08:18:24.175Z,98947.02
2022-09-12T08:19:26.276Z,98948.59
2022-09-12T08:20:30.116Z,98941.98
2022-09-12T08:21:33.556Z,98946.34
2022-09-12T08:22:36.182Z,98950.92
2022-09-12T08:23:38.638Z,98940.76
2022-09-12T08:24:41.132Z,98945.72
2022-09-12T08:25:43.180Z,98951.05
2022-09-12T08:26:45.550Z,98957.47
2022-09-12T08:27:47.906Z,98954.94
2022-09-12T08:28:50.306Z,98956.86
2022-09-12T08:29:52.320Z,98962.89
2022-09-12T08:30:56.363Z,98958.84
2022-09-12T08:31:59.078Z,98948.89
2022-09-12T08:33:00.863Z,98954.25
2022-09-12T08:34:04.603Z,98953.71
2022-09-12T08:35:07.324Z,98957.87
2022-09-12T08:36:15.499Z,98955.73
2022-09-12T08:37:17.599Z,98954.36
2022-09-12T08:38:25.745Z,98947.81
2022-09-12T08:39:27.688Z,98949.25
2022-09-12T08:40:29.828Z,98943.38
2022-09-12T08:41:40.970Z,98938.92
2022-09-12T08:42:52.895Z,98946.03
2022-09-12T08:44:17.104Z,98940.64
2022-09-12T08:47:03.070Z,98936.59
2022-09-12T08:48:07.722Z,98939.97
2022-09-12T08:49:13.869Z,98940.14
2022-09-12T08:50:20.064Z,98944.81
2022-09-12T08:51:23.820Z,98942.64
2022-09-12T08:52:30.042Z,98946.34
2022-09-12T08:53:35.850Z,98941.55
2022-09-12T08:54:40.591Z,98944.60
2022-09-12T08:55:45.322Z,98941.92
2022-09-12T08:56:48.068Z,98942.86
2022-09-12T08:57:51.054Z,98939.08
2022-09-12T08:58:52.997Z,98936.77
2022-09-12T08:59:55.921Z,98936.77
2022-09-12T09:01:02.140Z,98940.17
2022-09-12T09:02:06.815Z,98943.58
2022-09-12T09:03:18.675Z,98935.58
2022-09-12T09:05:43.508Z,98937.25
2022-09-12T09:06:57.163Z,98934.14
2022-09-12T09:08:24.299Z,98939.38
2022-09-12T09:09:44.889Z,98937.20
2022-09-12T09:11:06.310Z,98931.85
2022-09-12T09:12:28.024Z,98940.50
2022-09-12T09:13:39.670Z,98930.45
2022-09-12T09:15:02.061Z,98930.15
2022-09-12T09:16:07.965Z,98932.55
2022-09-12T09:17:25.741Z,98933.75
2022-09-12T09:18:31.732Z,98936.85
2022-09-12T09:19:40.340Z,98936.88
2022-09-12T09:20:46.021Z,98933.66
2022-09-12T09:21:57.966Z,98937.47
2022-09-12T09:23:24.637Z,98936.76
2022-09-12T09:24:37.428Z,98931.39
2022-09-12T09:25:45.757Z,98934.73
2022-09-12T09:26:54.442Z,98938.54
2022-09-12T09:28:03.225Z,98936.38
2022-09-12T09:30:20.897Z,98934.91
2022-09-12T09:31:25.150Z,98942.81
2022-09-12T09:32:33.739Z,98942.55
2022-09-12T09:33:38.136Z,98942.55
2022-09-12T09:34:40.187Z,98943.50
2022-09-12T09:35:47.532Z,98939.69
2022-09-12T09:36:53.258Z,98940.20
2022-09-12T09:38:04.691Z,98948.67
2022-09-12T09:39:33.364Z,98938.28
2022-09-12T09:40:40.123Z,98944.73
2022-09-12T09:41:55.240Z,98931.97
2022-09-12T09:43:20.433Z,98938.88
2022-09-12T09:44:22.977Z,98931.86
2022-09-12T09:45:25.618Z,98938.98
2022-09-12T09:46:28.655Z,98936.68
2022-09-12T09:47:30.779Z,98935.07
2022-09-12T09:48:38.501Z,98935.07
2022-09-12T09:49:41.246Z,98939.38
2022-09-12T09:50:45.983Z,98938.41
2022-09-12T09:51:48.414Z,98939.07
2022-09-12T09:52:52.170Z,98933.90
2022-09-12T09:53:58.848Z,98936.45
2022-09-12T09:55:01.494Z,98939.02
2022-09-12T09:56:07.219Z,98940.10
2022-09-12T09:57:32.669Z,98949.52
2022-09-12T09:58:36.295Z,98951.77
2022-09-12T09:59:39.048Z,98952.03
2022-09-12T10:00:43.106Z,98947.09
2022-09-12T10:01:56.800Z,98952.67
2022-09-12T10:03:27.009Z,98946.91
2022-09-12T10:04:40.544Z,98943.31
2022-09-12T10:05:53.886Z,98956.05
2022-09-12T10:07:02.047Z,98943.64
2022-09-12T10:08:07.140Z,98950.67
2022-09-12T10:09:15.769Z,98954.14
2022-09-12T10:10:19.816Z,98951.38
2022-09-12T10:11:22.242Z,98960.08
2022-09-12T10:12:28.639Z,98959.02
2022-09-12T10:13:52.350Z,98958.50
2022-09-12T10:15:00.852Z,98960.47
2022-09-12T10:16:06.581Z,98952.21
2022-09-12T10:17:34.323Z,98953.39
2022-09-12T10:18:38.710Z,98951.47
2022-09-12T10:19:41.242Z,98951.77
2022-09-12T10:20:45.062Z,98947.66
2022-09-12T10:21:50.688Z,98942.83
2022-09-12T10:22:53.365Z,98942.05
2022-09-12T10:24:07.198Z,98956.58
2022-09-12T10:25:13.551Z,98949.15
2022-09-12T10:26:20.260Z,98947.77
2022-09-12T10:27:25.410Z,98946.83
2022-09-12T10:29:48.070Z,98943.43
2022-09-12T10:30:52.900Z,98951.97
2022-09-12T10:31:58.440Z,98952.59
2022-09-12T10:33:10.678Z,98948.70
2022-09-12T10:34:29.282Z,98946.49
2022-09-12T10:35:34.909Z,98944.61
2022-09-12T10:36:39.773Z,98942.23
2022-09-12T10:37:48.363Z,98940.72
2022-09-12T10:38:58.458Z,98938.64
2022-09-12T10:40:03.748Z,98947.25
2022-09-12T10:41:08.205Z,98945.98
2022-09-12T10:42:15.116Z,98944.88
2022-09-12T10:43:20.019Z,98943.23
2022-09-12T10:44:29.767Z,98948.49
2022-09-12T10:45:38.040Z,98945.11
2022-09-12T10:46:40.904Z,98949.52
2022-09-12T10:47:43.434Z,98948.14
2022-09-12T10:48:47.965Z,98948.97
2022-09-12T10:49:49.946Z,98950.22
2022-09-12T10:50:52.086Z,98953.55
2022-09-12T10:51:55.571Z,98945.37
2022-09-12T10:53:23.786Z,98947.58
2022-09-12T10:54:27.457Z,98947.58
2022-09-12T10:55:33.250Z,98951.72
2022-09-12T10:56:48.020Z,98948.52
2022-09-12T10:58:17.493Z,98963.03
2022-09-12T10:59:29.692Z,98949.75
2022-09-12T11:00:35.799Z,98960.88
2022-09-12T11:01:51.126Z,98962.37
2022-09-12T11:03:25.429Z,98958.98
2022-09-12T11:04:43.759Z,98960.03
2022-09-12T11:06:00.113Z,98964.91
2022-09-12T11:07:12.745Z,98961.51
2022-09-12T11:08:30.296Z,98955.10
2022-09-12T11:10:09.983Z,98962.54
2022-09-12T11:11:15.719Z,98961.89
2022-09-12T11:12:24.351Z,98955.72
2022-09-12T11:13:44.816Z,98957.31
2022-09-12T11:15:02.757Z,98959.59
2022-09-12T11:16:26.144Z,98958.91
2022-09-12T11:17:37.718Z,98956.78
2022-09-12T11:19:01.186Z,98956.20
2022-09-12T11:20:27.676Z,98966.34
2022-09-12T11:21:33.294Z,98963.39
2022-09-12T11:23:00.435Z,98962.80
2022-09-12T11:24:14.858Z,98964.70
2022-09-12T11:25:27.173Z,98964.12
2022-09-12T11:26:53.629Z,98965.20
2022-09-12T11:28:17.391Z,98965.40
2022-09-12T11:29:40.358Z,98967.56
2022-09-12T11:30:58.429Z,98968.64
2022-09-12T11:32:34.593Z,98966.64
2022-09-12T11:33:45.917Z,98964.01
2022-09-12T11:34:51.804Z,98962.34
2022-09-12T11:35:55.734Z,98973.31
2022-09-12T11:37:21.616Z,98962.00
2022-09-12T11:38:36.407Z,98966.16
2022-09-12T11:39:40.019Z,98964.95
2022-09-12T11:40:52.431Z,98963.87
2022-09-12T11:41:58.542Z,98967.84
2022-09-12T11:43:05.153Z,98966.77
2022-09-12T11:44:16.831Z,98964.86
2022-09-12T11:45:37.833Z,98968.30
2022-09-12T11:46:43.240Z,98974.86
2022-09-12T11:47:48.854Z,98969.48
2022-09-12T11:49:00.318Z,98964.11
2022-09-12T11:51:19.862Z,98966.89
2022-09-12T11:52:29.009Z,98964.02
2022-09-12T11:53:35.229Z,98977.97
2022-09-12T11:54:53.552Z,98967.33
2022-09-12T11:56:09.877Z,98972.23
2022-09-12T11:57:28.508Z,98978.63
2022-09-12T11:58:31.623Z,98971.72
2022-09-12T11:59:53.683Z,98977.20
2022-09-12T12:01:05.575Z,98976.95
2022-09-12T12:02:14.166Z,98977.77
2022-09-12T12:03:32.011Z,98979.02
2022-09-12T12:04:40.516Z,98972.35
2022-09-12T12:06:15.260Z,98977.86
2022-09-12T12:07:17.326Z,98971.35
2022-09-12T12:08:22.885Z,98977.98
2022-09-12T12:09:24.925Z,98977.13
2022-09-12T12:10:36.980Z,98981.54
2022-09-12T12:11:43.079Z,98977.13
2022-09-12T12:12:46.054Z,98974.06
2022-09-12T12:13:57.541Z,98975.58
2022-09-12T12:15:01.737Z,98975.70
2022-09-12T12:16:29.824Z,98976.64
2022-09-12T12:17:34.414Z,98985.55
2022-09-12T12:18:38.837Z,98982.98
2022-09-12T12:19:44.489Z,98989.44
2022-09-12T12:20:47.093Z,98982.33
2022-09-12T12:21:51.005Z,98984.38
2022-09-12T12:22:54.792Z,98989.89
2022-09-12T12:24:25.254Z,98984.45
2022-09-12T12:25:43.185Z,98992.79
2022-09-12T12:26:52.186Z,98981.88
2022-09-12T12:27:57.533Z,98987.84
2022-09-12T12:28:59.992Z,98986.81
2022-09-12T12:30:02.226Z,98989.09
2022-09-12T12:31:04.817Z,98991.16
2022-09-12T12:32:10.712Z,98994.63
2022-09-12T12:33:23.030Z,98988.99
2022-09-12T12:34:38.766Z,98986.16
2022-09-12T12:35:59.874Z,98993.77
2022-09-12T12:37:26.033Z,98988.91
2022-09-12T12:38:32.715Z,98985.11
2022-09-12T12:39:41.761Z,98990.17
2022-09-12T12:40:44.171Z,98992.22
2022-09-12T12:41:46.446Z,98984.81
2022-09-12T12:42:57.897Z,98989.55
2022-09-12T12:44:03.711Z,98985.55
2022-09-12T12:45:19.451Z,98990.34
2022-09-12T12:46:25.924Z,98992.11
2022-09-12T12:47:33.866Z,98989.03
2022-09-12T12:48:56.764Z,98991.33
2022-09-12T12:50:02.333Z,98994.06
2022-09-12T12:51:39.120Z,98990.70
2022-09-12T12:53:00.577Z,98993.00
2022-09-12T12:54:09.778Z,99000.02
2022-09-12T12:55:16.051Z,98993.02
2022-09-12T12:56:31.580Z,98998.47
2022-09-12T12:57:55.864Z,98998.12
2022-09-12T12:59:04.126Z,99001.58
2022-09-12T13:00:22.302Z,98997.39
2022-09-12T13:01:25.663Z,98994.48
2022-09-12T13:02:40.673Z,98998.00
2022-09-12T13:04:02.098Z,99000.11
2022-09-12T13:06:42.034Z,99000.94
2022-09-12T13:07:44.688Z,99001.66
2022-09-12T13:08:50.602Z,99001.16
2022-09-12T13:09:54.753Z,98998.44
2022-09-12T13:11:03.425Z,99002.80
2022-09-12T13:12:09.075Z,99001.98
2022-09-12T13:13:15.668Z,98999.25
2022-09-12T13:14:44.321Z,99006.06
2022-09-12T13:15:49.587Z,98998.34
2022-09-12T13:16:58.627Z,98999.68
2022-09-12T13:18:03.451Z,98995.39
2022-09-12T13:19:18.217Z,98994.45
2022-09-12T13:20:29.197Z,99004.81
2022-09-12T13:21:31.733Z,99004.09
2022-09-12T13:22:40.686Z,99001.78
2022-09-12T13:23:43.272Z,99007.00
2022-09-12T13:24:47.596Z,99006.89
2022-09-12T13:25:55.895Z,99004.72